createdAt,value
2023-05-01T00:00:54.007Z,99.90
2023-05-01T00:03:20.903Z,99.90
2023-05-01T00:05:48.289Z,99.90
2023-05-01T00:08:15.899Z,99.90
2023-05-01T00:10:43.101Z,99.90
2023-05-01T00:13:10.343Z,99.90
2023-05-01T00:15:37.368Z,99.90
2023-05-01T00:18:04.353Z,99.90
2023-05-01T00:20:31.455Z,99.90
2023-05-01T00:22:58.416Z,99.90
2023-05-01T00:25:25.387Z,99.90
2023-05-01T00:27:52.225Z,99.90
2023-05-01T00:30:19.084Z,99.90
2023-05-01T00:32:45.959Z,99.90
2023-05-01T00:35:13.501Z,99.90
2023-05-01T00:37:40.457Z,99.90
2023-05-01T00:40:08.421Z,99.90
2023-05-01T00:42:37.208Z,99.90
2023-05-01T00:45:04.329Z,99.90
2023-05-01T00:47:31.214Z,99.90
2023-05-01T00:49:59.339Z,99.90
2023-05-01T00:52:26.473Z,99.90
2023-05-01T00:54:54.476Z,99.90
2023-05-01T00:57:22.036Z,99.90
2023-05-01T00:59:49.389Z,99.90
2023-05-01T01:02:16.312Z,99.90
2023-05-01T01:04:45.912Z,99.90
2023-05-01T01:07:21.514Z,99.90
2023-05-01T01:10:07.022Z,99.90
2023-05-01T01:12:46.111Z,99.90
2023-05-01T01:15:27.616Z,99.90
2023-05-01T01:18:24.430Z,99.90
2023-05-01T01:21:11.559Z,99.90
2023-05-01T01:23:41.899Z,99.90
2023-05-01T01:26:23.997Z,99.90
2023-05-01T01:29:08.873Z,99.90
2023-05-01T01:32:12.809Z,99.90
2023-05-01T01:34:56.297Z,99.90
2023-05-01T01:37:29.564Z,99.90
2023-05-01T01:40:18.743Z,99.90
2023-05-01T01:42:59.334Z,99.90
2023-05-01T01:45:34.011Z,99.90
2023-05-01T01:48:03.026Z,99.90
2023-05-01T01:50:32.052Z,99.90
2023-05-01T01:53:01.750Z,99.90
2023-05-01T01:55:31.473Z,99.90
2023-05-01T01:57:59.548Z,99.90
2023-05-01T02:00:28.563Z,99.90
2023-05-01T02:02:56.481Z,99.90
2023-05-01T02:05:25.705Z,99.90
2023-05-01T02:07:53.340Z,99.90
2023-05-01T02:10:22.715Z,99.90
2023-05-01T02:12:51.905Z,99.90
2023-05-01T02:15:20.545Z,99.90
2023-05-01T02:17:48.677Z,99.90
2023-05-01T02:20:16.427Z,99.90
2023-05-01T02:22:46.108Z,99.90
2023-05-01T02:25:14.854Z,99.90
2023-05-01T02:27:56.189Z,99.90
2023-05-01T02:30:23.457Z,99.90
2023-05-01T02:32:50.746Z,99.90
2023-05-01T02:35:17.940Z,99.90
2023-05-01T02:37:45.779Z,99.90
2023-05-01T02:40:16.455Z,99.90
2023-05-01T02:42:44.896Z,99.90
2023-05-01T02:45:20.277Z,99.90
2023-05-01T02:47:51.855Z,99.90
2023-05-01T02:50:20.194Z,99.90
2023-05-01T02:52:47.963Z,99.90
2023-05-01T02:55:15.480Z,99.90
2023-05-01T02:57:42.384Z,99.90
2023-05-01T03:00:13.748Z,99.90
2023-05-01T03:02:41.119Z,99.90
2023-05-01T03:05:08.646Z,99.90
2023-05-01T03:07:35.545Z,99.90
2023-05-01T03:10:04.200Z,99.90
2023-05-01T03:12:31.680Z,99.90
2023-05-01T03:14:58.679Z,99.90
2023-05-01T03:17:25.878Z,99.90
2023-05-01T03:19:53.035Z,99.90
2023-05-01T03:22:20.117Z,99.90
2023-05-01T03:24:47.592Z,99.90
2023-05-01T03:27:14.578Z,99.90
2023-05-01T03:29:41.493Z,99.90
2023-05-01T03:32:08.426Z,99.90
2023-05-01T03:34:35.828Z,99.90
2023-05-01T03:37:02.691Z,99.90
2023-05-01T03:39:29.517Z,99.90
2023-05-01T03:41:56.347Z,99.90
2023-05-01T03:44:23.183Z,99.90
2023-05-01T03:46:50.030Z,99.90
2023-05-01T03:49:16.874Z,99.90
2023-05-01T03:51:43.701Z,99.90
2023-05-01T03:54:10.550Z,99.90
2023-05-01T03:56:38.488Z,99.90
2023-05-01T03:59:05.479Z,99.90
2023-05-01T04:01:33.682Z,99.90
2023-05-01T04:04:00.599Z,99.90
2023-05-01T04:06:28.124Z,99.90
2023-05-01T04:08:54.995Z,99.90
2023-05-01T04:11:24.352Z,99.90
2023-05-01T04:13:51.225Z,99.90
2023-05-01T04:16:18.207Z,99.90
2023-05-01T04:18:45.136Z,99.90
2023-05-01T04:21:13.185Z,99.90
2023-05-01T04:23:40.072Z,99.90
2023-05-01T04:26:07.122Z,99.90
2023-05-01T04:28:33.956Z,99.90
2023-05-01T04:31:00.920Z,99.90
2023-05-01T04:33:28.386Z,99.90
2023-05-01T04:35:55.243Z,99.90
2023-05-01T04:38:22.043Z,99.90
2023-05-01T04:40:48.928Z,99.90
2023-05-01T04:43:15.996Z,99.90
2023-05-01T04:45:42.961Z,99.90
2023-05-01T04:48:09.872Z,99.90
2023-05-01T04:50:37.691Z,99.90
2023-05-01T04:53:04.604Z,99.90
2023-05-01T04:55:31.559Z,99.90
2023-05-01T04:57:58.432Z,99.90
2023-05-01T05:00:25.623Z,99.90
2023-05-01T05:02:52.591Z,99.90
2023-05-01T05:05:19.935Z,99.90
2023-05-01T05:07:47.110Z,99.90
2023-05-01T05:10:14.958Z,99.90
2023-05-01T05:12:41.765Z,99.90
2023-05-01T05:15:09.093Z,99.90
2023-05-01T05:17:36.115Z,99.90
2023-05-01T05:20:02.991Z,99.90
2023-05-01T05:22:29.855Z,99.90
2023-05-01T05:25:00.014Z,99.90
2023-05-01T05:27:26.903Z,99.90
2023-05-01T05:29:53.814Z,99.90
2023-05-01T05:32:20.895Z,99.20
2023-05-01T05:34:47.951Z,98.10
2023-05-01T05:37:15.408Z,99.10
2023-05-01T05:39:42.204Z,97.70
2023-05-01T05:42:09.078Z,97.00
2023-05-01T05:44:36.016Z,97.70
2023-05-01T05:47:02.961Z,97.30
2023-05-01T05:49:29.791Z,97.10
2023-05-01T05:51:56.847Z,96.30
2023-05-01T05:54:23.713Z,95.10
2023-05-01T05:56:51.107Z,92.80
2023-05-01T05:59:18.646Z,94.20
2023-05-01T06:01:45.586Z,92.80
2023-05-01T06:04:14.070Z,92.00
2023-05-01T06:06:41.172Z,91.50
2023-05-01T06:09:12.767Z,92.70
2023-05-01T06:11:40.043Z,92.80
2023-05-01T06:14:07.475Z,92.50
2023-05-01T06:16:34.611Z,91.10
2023-05-01T06:19:01.527Z,90.30
2023-05-01T06:21:28.398Z,90.00
2023-05-01T06:23:55.281Z,86.70
2023-05-01T06:26:23.195Z,83.60
2023-05-01T06:28:50.081Z,76.70
2023-05-01T06:31:17.065Z,71.90
2023-05-01T06:33:43.951Z,68.90
2023-05-01T06:36:10.876Z,66.20
2023-05-01T06:38:37.936Z,64.50
2023-05-01T06:41:05.847Z,60.60
2023-05-01T06:43:33.381Z,62.60
2023-05-01T06:46:00.254Z,61.70
2023-05-01T06:48:27.068Z,60.00
2023-05-01T06:50:53.884Z,58.50
2023-05-01T06:53:20.697Z,56.30
2023-05-01T06:55:47.610Z,55.80
2023-05-01T06:58:23.511Z,53.50
2023-05-01T07:00:52.594Z,53.10
2023-05-01T07:03:19.922Z,51.50
2023-05-01T07:05:46.772Z,50.70
2023-05-01T07:08:14.407Z,51.90
2023-05-01T07:10:44.628Z,53.00
2023-05-01T07:13:11.736Z,52.70
2023-05-01T07:15:38.869Z,50.70
2023-05-01T07:18:08.846Z,50.20
2023-05-01T07:20:37.346Z,50.90
2023-05-01T07:23:07.130Z,49.90
2023-05-01T07:25:34.551Z,50.90
2023-05-01T07:28:04.581Z,52.20
2023-05-01T07:30:33.060Z,50.70
2023-05-01T07:33:00.376Z,52.00
2023-05-01T07:35:27.487Z,53.00
2023-05-01T07:37:55.141Z,52.70
2023-05-01T07:40:24.389Z,52.10
2023-05-01T07:42:54.342Z,51.40
2023-05-01T07:45:21.686Z,49.10
2023-05-01T07:47:49.621Z,51.20
2023-05-01T07:50:17.356Z,51.80
2023-05-01T07:52:44.708Z,49.50
2023-05-01T07:55:11.703Z,52.20
2023-05-01T07:57:39.230Z,52.90
2023-05-01T08:00:06.824Z,53.70
2023-05-01T08:02:33.960Z,55.10
2023-05-01T08:05:01.266Z,54.90
2023-05-01T08:07:28.469Z,55.50
2023-05-01T08:09:57.733Z,55.50
2023-05-01T08:12:28.313Z,56.30
2023-05-01T08:14:55.320Z,57.20
2023-05-01T08:17:22.270Z,57.00
2023-05-01T08:19:50.285Z,57.70
2023-05-01T08:22:19.347Z,57.40
2023-05-01T08:24:46.344Z,58.00
2023-05-01T08:27:13.266Z,58.10
2023-05-01T08:29:42.934Z,57.70
2023-05-01T08:32:09.962Z,59.00
2023-05-01T08:34:36.866Z,59.10
2023-05-01T08:37:06.303Z,59.60
2023-05-01T08:39:33.146Z,62.60
2023-05-01T08:42:00.151Z,60.70
2023-05-01T08:44:28.820Z,60.60
2023-05-01T08:47:15.137Z,58.80
2023-05-01T08:49:43.017Z,59.60
2023-05-01T08:52:14.563Z,61.60
2023-05-01T08:54:47.129Z,62.00
2023-05-01T08:57:14.217Z,64.20
2023-05-01T08:59:41.334Z,61.80
2023-05-01T09:02:10.300Z,62.20
2023-05-01T09:04:40.121Z,60.20
2023-05-01T09:07:08.373Z,63.50
2023-05-01T09:09:35.305Z,61.40
2023-05-01T09:12:20.986Z,62.70
2023-05-01T09:14:47.906Z,63.50
2023-05-01T09:17:15.716Z,63.70
2023-05-01T09:19:42.676Z,63.20
2023-05-01T09:22:10.146Z,64.10
2023-05-01T09:24:37.122Z,65.50
2023-05-01T09:27:04.160Z,64.20
2023-05-01T09:29:48.310Z,65.10
2023-05-01T09:32:20.811Z,66.60
2023-05-01T09:34:49.167Z,67.90
2023-05-01T09:37:33.070Z,63.50
2023-05-01T09:40:04.239Z,65.30
2023-05-01T09:42:32.670Z,67.40
2023-05-01T09:45:01.031Z,67.60
2023-05-01T09:47:29.633Z,66.50
2023-05-01T09:49:57.900Z,64.60
2023-05-01T09:52:30.128Z,64.30
2023-05-01T09:55:17.433Z,66.40
2023-05-01T09:57:46.194Z,67.70
2023-05-01T10:00:15.407Z,64.80
2023-05-01T10:02:45.909Z,67.50
2023-05-01T10:05:14.063Z,66.60
2023-05-01T10:07:59.279Z,64.80
2023-05-01T10:10:26.598Z,66.40
2023-05-01T10:12:53.488Z,69.90
2023-05-01T10:15:26.083Z,64.70
2023-05-01T10:17:54.410Z,62.90
2023-05-01T10:20:22.071Z,65.80
2023-05-01T10:22:49.558Z,67.90
2023-05-01T10:25:18.116Z,66.20
2023-05-01T10:27:45.384Z,68.10
2023-05-01T10:30:12.752Z,67.30
2023-05-01T10:32:42.932Z,63.90
2023-05-01T10:35:23.976Z,66.80
2023-05-01T10:38:02.822Z,65.90
2023-05-01T10:40:51.746Z,71.20
2023-05-01T10:43:29.133Z,67.60
2023-05-01T10:46:21.904Z,71.20
2023-05-01T10:48:51.814Z,72.20
2023-05-01T10:51:20.547Z,66.30
2023-05-01T10:54:13.783Z,67.10
2023-05-01T10:56:43.969Z,71.00
2023-05-01T10:59:11.863Z,68.60
2023-05-01T11:01:47.812Z,70.40
2023-05-01T11:04:24.470Z,69.70
2023-05-01T11:07:07.569Z,70.50
2023-05-01T11:09:39.008Z,64.50
2023-05-01T11:12:07.355Z,67.40
2023-05-01T11:15:05.565Z,67.60
2023-05-01T11:17:41.830Z,68.60
2023-05-01T11:20:09.943Z,67.80
2023-05-01T11:22:38.461Z,71.90
2023-05-01T11:25:22.123Z,70.70
2023-05-01T11:27:50.673Z,70.20
2023-05-01T11:30:18.224Z,72.30
2023-05-01T11:32:46.893Z,73.20
2023-05-01T11:35:19.619Z,75.50
2023-05-01T11:37:47.200Z,72.50
2023-05-01T11:40:21.737Z,70.60
2023-05-01T11:42:49.264Z,69.50
2023-05-01T11:45:16.418Z,70.40
2023-05-01T11:47:43.381Z,72.50
2023-05-01T11:50:11.389Z,69.30
2023-05-01T11:52:46.604Z,69.10
2023-05-01T11:55:13.643Z,70.60
2023-05-01T11:57:52.211Z,71.30
2023-05-01T12:00:37.285Z,71.10
2023-05-01T12:03:12.815Z,74.60
2023-05-01T12:05:45.439Z,74.70
2023-05-01T12:08:20.669Z,75.40
2023-05-01T12:10:51.226Z,71.00
2023-05-01T12:13:18.644Z,73.10
2023-05-01T12:15:47.596Z,72.20
2023-05-01T12:18:16.323Z,73.40
2023-05-01T12:20:48.640Z,75.80
2023-05-01T12:23:16.806Z,71.90
2023-05-01T12:25:44.823Z,76.90
2023-05-01T12:28:14.130Z,71.40
2023-05-01T12:30:42.491Z,68.20
2023-05-01T12:33:15.705Z,69.20
2023-05-01T12:35:46.492Z,71.40
2023-05-01T12:38:21.228Z,70.50
2023-05-01T12:40:56.775Z,70.20
2023-05-01T12:43:32.554Z,73.00
2023-05-01T12:45:59.824Z,73.30
2023-05-01T12:48:27.739Z,70.90
2023-05-01T12:50:55.321Z,71.60
2023-05-01T12:53:23.549Z,72.70
2023-05-01T12:55:52.666Z,72.40
2023-05-01T12:58:19.790Z,71.10
2023-05-01T13:00:52.313Z,73.20
2023-05-01T13:03:27.529Z,70.10
2023-05-01T13:05:56.109Z,70.30
2023-05-01T13:08:29.112Z,70.60
2023-05-01T13:10:58.008Z,74.60
2023-05-01T13:13:28.923Z,76.30
2023-05-01T13:16:12.418Z,75.60
2023-05-01T13:18:48.051Z,72.30
2023-05-01T13:21:19.562Z,74.20
2023-05-01T13:23:55.314Z,72.40
2023-05-01T13:26:27.826Z,69.40
2023-05-01T13:28:55.472Z,72.90
2023-05-01T13:31:22.523Z,67.80
2023-05-01T13:33:57.465Z,66.10
2023-05-01T13:36:27.137Z,64.70
2023-05-01T13:38:56.794Z,66.00
2023-05-01T13:41:26.266Z,71.00
2023-05-01T13:43:54.641Z,71.40
2023-05-01T13:46:23.364Z,71.60
2023-05-01T13:48:50.691Z,70.10
2023-05-01T13:51:25.296Z,74.10
2023-05-01T13:53:53.709Z,74.10
2023-05-01T13:56:21.976Z,70.70
2023-05-01T13:58:50.312Z,66.70
2023-05-01T14:01:21.018Z,68.90
2023-05-01T14:03:49.469Z,69.20
2023-05-01T14:06:20.996Z,68.40
2023-05-01T14:08:50.618Z,70.80
2023-05-01T14:11:18.289Z,70.30
2023-05-01T14:13:47.663Z,69.00
2023-05-01T14:16:24.818Z,70.50
2023-05-01T14:18:55.387Z,66.50
2023-05-01T14:21:29.955Z,63.90
2023-05-01T14:23:58.010Z,65.60
2023-05-01T14:26:24.962Z,64.50
2023-05-01T14:28:52.139Z,63.40
2023-05-01T14:31:27.047Z,67.40
2023-05-01T14:34:02.884Z,62.70
2023-05-01T14:36:33.201Z,67.30
2023-05-01T14:39:01.556Z,64.40
2023-05-01T14:41:29.722Z,68.60
2023-05-01T14:43:56.852Z,67.40
2023-05-01T14:46:32.197Z,66.00
2023-05-01T14:49:01.171Z,67.20
2023-05-01T14:51:29.438Z,64.50
2023-05-01T14:53:56.381Z,67.20
2023-05-01T14:56:23.471Z,64.50
2023-05-01T14:58:50.475Z,64.40
2023-05-01T15:01:18.134Z,62.10
2023-05-01T15:03:45.559Z,62.10
2023-05-01T15:06:13.766Z,66.00
2023-05-01T15:08:40.880Z,68.30
2023-05-01T15:11:08.578Z,67.00
2023-05-01T15:13:36.350Z,64.70
2023-05-01T15:16:03.787Z,66.80
2023-05-01T15:18:31.514Z,66.60
2023-05-01T15:20:58.526Z,66.20
2023-05-01T15:23:28.420Z,70.10
2023-05-01T15:25:55.403Z,70.70
2023-05-01T15:28:48.500Z,68.90
2023-05-01T15:31:16.551Z,69.30
2023-05-01T15:33:44.980Z,66.90
2023-05-01T15:36:12.111Z,66.80
2023-05-01T15:38:39.064Z,69.70
2023-05-01T15:41:06.097Z,70.40
2023-05-01T15:43:33.519Z,71.40
2023-05-01T15:46:00.727Z,70.50
2023-05-01T15:48:27.899Z,70.30
2023-05-01T15:50:54.749Z,69.20
2023-05-01T15:53:22.360Z,67.50
2023-05-01T15:55:49.293Z,71.20
2023-05-01T15:58:16.887Z,69.90
2023-05-01T16:00:48.898Z,68.80
2023-05-01T16:03:17.302Z,71.40
2023-05-01T16:05:49.199Z,70.90
2023-05-01T16:11:19.048Z,66.20
2023-05-01T16:13:48.254Z,68.50
2023-05-01T16:16:22.615Z,68.70
2023-05-01T16:18:54.946Z,70.40
2023-05-01T16:21:38.907Z,68.10
2023-05-01T16:24:43.004Z,64.90
2023-05-01T16:35:39.300Z,65.90
2023-05-01T16:38:44.520Z,74.30
2023-05-01T16:41:45.835Z,69.80
2023-05-01T16:44:17.347Z,71.40
2023-05-01T16:46:52.124Z,71.70
2023-05-01T16:49:19.747Z,75.80
2023-05-01T16:55:11.902Z,73.20
2023-05-01T16:57:46.457Z,74.60
2023-05-01T17:00:15.111Z,69.00
2023-05-01T17:02:42.269Z,68.90
2023-05-01T17:05:09.764Z,66.10
2023-05-01T17:07:36.944Z,67.50
2023-05-01T17:10:07.118Z,66.40
2023-05-01T17:12:34.123Z,65.80
2023-05-01T17:15:01.271Z,66.80
2023-05-01T17:17:33.073Z,66.80
2023-05-01T17:20:01.304Z,66.20
2023-05-01T17:22:29.253Z,68.40
2023-05-01T17:24:57.432Z,68.20
2023-05-01T17:27:24.447Z,68.40
2023-05-01T17:29:51.436Z,69.50
2023-05-01T17:32:33.044Z,71.50
2023-05-01T17:35:05.082Z,73.90
2023-05-01T17:37:32.277Z,74.00
2023-05-01T17:39:59.346Z,73.40
2023-05-01T17:42:26.461Z,74.10
2023-05-01T17:44:53.541Z,74.60
2023-05-01T17:47:25.783Z,74.80
2023-05-01T17:49:53.066Z,72.30
2023-05-01T17:52:19.930Z,75.40
2023-05-01T17:54:46.933Z,76.20
2023-05-01T17:57:13.900Z,74.80
2023-05-01T17:59:40.847Z,75.50
2023-05-01T18:02:08.409Z,75.70
2023-05-01T18:04:36.197Z,75.90
2023-05-01T18:07:04.382Z,73.40
2023-05-01T18:09:31.439Z,76.00
2023-05-01T18:11:58.363Z,73.50
2023-05-01T18:14:25.242Z,73.60
2023-05-01T18:16:52.866Z,75.50
2023-05-01T18:19:20.035Z,73.60
2023-05-01T18:21:46.852Z,74.50
2023-05-01T18:24:13.951Z,77.80
2023-05-01T18:26:40.793Z,80.60
2023-05-01T18:29:07.957Z,79.10
2023-05-01T18:31:37.888Z,71.10
2023-05-01T18:34:06.384Z,76.60
2023-05-01T18:36:33.425Z,81.50
2023-05-01T18:39:01.834Z,84.70
2023-05-01T18:41:28.710Z,82.10
2023-05-01T18:43:57.702Z,82.20
2023-05-01T18:46:25.035Z,83.60
2023-05-01T18:48:52.042Z,83.40
2023-05-01T18:51:18.962Z,84.00
2023-05-01T18:53:45.769Z,87.80
2023-05-01T18:56:12.897Z,86.40
2023-05-01T18:58:39.994Z,85.80
2023-05-01T19:01:06.979Z,89.90
2023-05-01T19:03:33.992Z,88.10
2023-05-01T19:06:00.952Z,87.40
2023-05-01T19:08:27.853Z,90.60
2023-05-01T19:10:54.751Z,92.00
2023-05-01T19:13:21.593Z,92.50
2023-05-01T19:15:48.541Z,94.30
2023-05-01T19:18:16.154Z,95.10
2023-05-01T19:20:43.099Z,95.00
2023-05-01T19:23:10.092Z,93.90
2023-05-01T19:25:46.878Z,94.10
2023-05-01T19:28:19.794Z,93.70
2023-05-01T19:30:46.761Z,93.80
2023-05-01T19:33:13.638Z,94.40
2023-05-01T19:35:40.486Z,93.80
2023-05-01T19:38:07.298Z,94.50
2023-05-01T19:40:34.146Z,95.30
2023-05-01T19:43:01.261Z,96.20
2023-05-01T19:45:28.359Z,96.10
2023-05-01T19:47:55.648Z,96.20
2023-05-01T19:50:22.705Z,96.10
2023-05-01T19:52:49.647Z,96.10
2023-05-01T19:55:17.204Z,95.70
2023-05-01T19:57:44.150Z,93.00
2023-05-01T20:00:14.433Z,92.80
2023-05-01T20:02:41.938Z,92.50
2023-05-01T20:05:09.464Z,92.10
2023-05-01T20:07:36.955Z,92.60
2023-05-01T20:10:04.924Z,94.10
2023-05-01T20:12:32.452Z,93.80
2023-05-01T20:15:01.325Z,95.20
2023-05-01T20:17:28.305Z,94.00
2023-05-01T20:19:55.192Z,93.20
2023-05-01T20:22:22.027Z,93.30
2023-05-01T20:24:48.898Z,93.00
2023-05-01T20:27:15.797Z,93.60
2023-05-01T20:29:42.689Z,94.20
2023-05-01T20:32:09.540Z,94.20
2023-05-01T20:34:36.468Z,94.00
2023-05-01T20:37:03.854Z,95.20
2023-05-01T20:39:30.691Z,95.80
2023-05-01T20:41:59.161Z,94.70
2023-05-01T20:44:26.369Z,95.50
2023-05-01T20:46:53.343Z,95.20
2023-05-01T20:49:20.976Z,95.50
2023-05-01T20:51:48.005Z,96.90
2023-05-01T20:54:14.862Z,97.60
2023-05-01T20:56:41.824Z,98.00
2023-05-01T20:59:08.822Z,98.00
2023-05-01T21:01:35.711Z,98.60
2023-05-01T21:04:03.897Z,99.10
2023-05-01T21:06:32.467Z,98.50
2023-05-01T21:09:00.696Z,98.10
2023-05-01T21:11:27.561Z,99.10
2023-05-01T21:13:54.489Z,99.50
2023-05-01T21:16:21.426Z,99.90
2023-05-01T21:18:48.784Z,99.90
2023-05-01T21:21:16.079Z,99.90
2023-05-01T21:23:50.787Z,99.90
2023-05-01T21:26:19.255Z,99.90
2023-05-01T21:28:46.609Z,99.40
2023-05-01T21:31:13.958Z,99.80
2023-05-01T21:33:45.809Z,99.90
2023-05-01T21:36:17.002Z,99.30
2023-05-01T21:38:45.869Z,98.80
2023-05-01T21:41:15.167Z,98.80
2023-05-01T21:43:42.154Z,98.90
2023-05-01T21:46:15.120Z,99.00
2023-05-01T21:48:42.533Z,99.10
2023-05-01T21:51:09.676Z,99.70
2023-05-01T21:53:39.937Z,98.70
2023-05-01T21:56:07.385Z,98.80
2023-05-01T21:58:34.479Z,98.70
2023-05-01T22:01:01.468Z,99.90
2023-05-01T22:03:28.595Z,99.90
2023-05-01T22:05:55.660Z,99.90
2023-05-01T22:08:23.699Z,99.90
2023-05-01T22:10:50.725Z,99.90
2023-05-01T22:13:17.719Z,99.90
2023-05-01T22:15:48.635Z,99.90
2023-05-01T22:18:19.463Z,99.90
2023-05-01T22:20:46.420Z,99.90
2023-05-01T22:23:14.339Z,99.90
2023-05-01T22:25:41.326Z,99.90
2023-05-01T22:28:08.832Z,99.90
2023-05-01T22:30:37.278Z,99.90
2023-05-01T22:33:04.311Z,99.90
2023-05-01T22:35:31.635Z,99.90
2023-05-01T22:37:58.611Z,99.90
2023-05-01T22:40:26.338Z,99.90
2023-05-01T22:42:53.391Z,99.90
2023-05-01T22:45:20.804Z,99.90
2023-05-01T22:47:47.777Z,99.90
2023-05-01T22:50:14.957Z,99.90
2023-05-01T22:52:42.812Z,99.90
2023-05-01T22:55:11.966Z,99.90
2023-05-01T22:57:39.018Z,99.90
2023-05-01T23:00:07.980Z,99.90
2023-05-01T23:02:35.110Z,99.90
2023-05-01T23:05:02.080Z,99.90
2023-05-01T23:07:29.052Z,99.90
2023-05-01T23:09:56.423Z,99.90
2023-05-01T23:12:25.600Z,99.90
2023-05-01T23:14:52.999Z,99.90
2023-05-01T23:17:20.022Z,99.90
2023-05-01T23:19:47.266Z,99.90
2023-05-01T23:22:14.371Z,99.90
2023-05-01T23:24:49.858Z,99.90
2023-05-01T23:27:18.405Z,99.90
2023-05-01T23:29:54.434Z,99.90
2023-05-01T23:32:27.028Z,99.90
2023-05-01T23:34:55.397Z,99.90
2023-05-01T23:37:22.643Z,99.90
2023-05-01T23:39:49.576Z,99.90
2023-05-01T23:42:16.766Z,99.90
2023-05-01T23:44:43.770Z,99.90
2023-05-01T23:47:11.286Z,99.90
2023-05-01T23:49:38.324Z,99.90
2023-05-01T23:52:06.792Z,99.90
2023-05-01T23:54:33.715Z,99.90
2023-05-01T23:57:00.765Z,99.90
2023-05-01T23:59:27.918Z,99.90
